createdAt,value
2023-01-07T00:00:29.237Z,92.76
2023-01-07T00:01:33.176Z,92.73
2023-01-07T00:02:35.023Z,92.13
2023-01-07T00:03:37.313Z,93.39
2023-01-07T00:04:39.113Z,92.45
2023-01-07T00:05:40.939Z,92.06
2023-01-07T00:06:44.467Z,92.50
2023-01-07T00:07:46.285Z,92.88
2023-01-07T00:08:48.854Z,93.06
2023-01-07T00:09:50.686Z,92.28
2023-01-07T00:10:52.522Z,92.36
2023-01-07T00:11:54.380Z,92.87
2023-01-07T00:12:56.282Z,92.75
2023-01-07T00:13:58.794Z,92.60
2023-01-07T00:15:00.644Z,92.46
2023-01-07T00:16:03.671Z,92.56
2023-01-07T00:17:05.634Z,92.40
2023-01-07T00:18:07.477Z,92.01
2023-01-07T00:19:12.387Z,92.81
2023-01-07T00:20:14.144Z,91.76
2023-01-07T00:21:17.106Z,91.84
2023-01-07T00:22:18.871Z,91.42
2023-01-07T00:23:21.978Z,91.71
2023-01-07T00:24:23.844Z,91.88
2023-01-07T00:25:25.819Z,91.90
2023-01-07T00:26:29.733Z,92.26
2023-01-07T00:27:31.570Z,91.91
2023-01-07T00:28:34.364Z,92.43
2023-01-07T00:29:36.131Z,92.72
2023-01-07T00:30:37.941Z,92.21
2023-01-07T00:31:41.039Z,92.53
2023-01-07T00:33:05.608Z,92.36
2023-01-07T00:34:09.446Z,92.54
2023-01-07T00:35:23.337Z,91.66
2023-01-07T00:36:26.449Z,92.54
2023-01-07T00:37:46.736Z,91.51
2023-01-07T00:38:49.105Z,91.41
2023-01-07T00:39:50.970Z,91.82
2023-01-07T00:40:52.853Z,91.55
2023-01-07T00:42:12.790Z,92.02
2023-01-07T00:43:14.498Z,91.12
2023-01-07T00:44:16.406Z,90.91
2023-01-07T00:45:18.205Z,92.00
2023-01-07T00:46:20.037Z,91.76
2023-01-07T00:47:22.382Z,91.39
2023-01-07T00:48:24.403Z,92.01
2023-01-07T00:49:26.497Z,91.45
2023-01-07T00:50:29.807Z,91.56
2023-01-07T00:51:31.621Z,91.42
2023-01-07T00:52:33.379Z,91.41
2023-01-07T00:53:35.285Z,92.50
2023-01-07T00:54:37.119Z,91.76
2023-01-07T00:55:39.109Z,92.78
2023-01-07T00:56:40.953Z,91.93
2023-01-07T00:57:43.037Z,92.41
2023-01-07T00:58:45.040Z,91.64
2023-01-07T00:59:46.887Z,91.93
2023-01-07T01:00:48.911Z,92.46
2023-01-07T01:01:50.832Z,92.61
2023-01-07T01:02:53.373Z,91.43
2023-01-07T01:03:55.325Z,92.44
2023-01-07T01:04:57.206Z,92.51
2023-01-07T01:06:03.361Z,92.26
2023-01-07T01:07:05.164Z,93.29
2023-01-07T01:08:07.674Z,92.92
2023-01-07T01:09:09.515Z,92.42
2023-01-07T01:10:13.271Z,92.85
2023-01-07T01:11:16.224Z,92.19
2023-01-07T01:12:18.003Z,93.25
2023-01-07T01:13:19.812Z,93.05
2023-01-07T01:14:21.663Z,92.82
2023-01-07T01:15:23.696Z,92.64
2023-01-07T01:16:25.653Z,92.48
2023-01-07T01:17:27.684Z,92.76
2023-01-07T01:18:29.550Z,93.57
2023-01-07T01:19:31.343Z,92.78
2023-01-07T01:20:34.591Z,93.17
2023-01-07T01:21:36.462Z,92.08
2023-01-07T01:22:38.352Z,92.64
2023-01-07T01:23:40.431Z,93.00
2023-01-07T01:24:42.195Z,92.25
2023-01-07T01:25:44.059Z,92.61
2023-01-07T01:26:45.869Z,92.36
2023-01-07T01:27:47.653Z,92.42
2023-01-07T01:28:49.473Z,93.16
2023-01-07T01:29:51.287Z,93.17
2023-01-07T01:30:56.166Z,92.53
2023-01-07T01:31:58.085Z,92.60
2023-01-07T01:32:59.856Z,92.14
2023-01-07T01:34:01.866Z,92.80
2023-01-07T01:35:03.714Z,93.38
2023-01-07T01:36:06.036Z,92.82
2023-01-07T01:37:08.337Z,93.22
2023-01-07T01:38:10.234Z,93.14
2023-01-07T01:39:12.512Z,93.43
2023-01-07T01:40:14.522Z,93.35
2023-01-07T01:41:19.155Z,92.51
2023-01-07T01:42:23.051Z,92.70
2023-01-07T01:43:27.011Z,92.21
2023-01-07T01:44:49.840Z,92.69
2023-01-07T01:45:51.774Z,91.61
2023-01-07T01:46:53.766Z,92.93
2023-01-07T01:48:03.556Z,92.39
2023-01-07T01:49:23.955Z,92.96
2023-01-07T01:50:31.618Z,93.29
2023-01-07T01:51:37.497Z,92.60
2023-01-07T01:52:41.979Z,93.33
2023-01-07T01:53:43.769Z,93.36
2023-01-07T01:54:55.463Z,93.18
2023-01-07T01:56:07.773Z,93.63
2023-01-07T01:57:10.160Z,92.75
2023-01-07T01:58:15.261Z,93.39
2023-01-07T01:59:22.728Z,93.79
2023-01-07T02:00:24.674Z,92.69
2023-01-07T02:01:26.960Z,92.69
2023-01-07T02:02:39.942Z,93.42
2023-01-07T02:03:41.734Z,92.79
2023-01-07T02:04:43.644Z,92.22
2023-01-07T02:05:46.114Z,92.15
2023-01-07T02:07:08.108Z,93.13
2023-01-07T02:08:10.253Z,92.74
2023-01-07T02:09:13.109Z,92.69
2023-01-07T02:10:19.782Z,92.87
2023-01-07T02:11:30.720Z,92.33
2023-01-07T02:12:32.429Z,92.11
2023-01-07T02:13:46.283Z,92.54
2023-01-07T02:15:00.405Z,93.42
2023-01-07T02:16:02.230Z,93.10
2023-01-07T02:17:10.758Z,93.29
2023-01-07T02:18:21.696Z,92.82
2023-01-07T02:19:26.399Z,93.24
2023-01-07T02:20:43.737Z,92.51
2023-01-07T02:21:55.803Z,92.78
2023-01-07T02:23:15.996Z,92.44
2023-01-07T02:24:33.405Z,92.34
2023-01-07T02:25:55.822Z,92.75
2023-01-07T02:27:06.765Z,92.99
2023-01-07T02:28:14.725Z,93.35
2023-01-07T02:29:25.720Z,92.41
2023-01-07T02:30:50.932Z,93.05
2023-01-07T02:32:19.507Z,92.84
2023-01-07T02:33:33.870Z,93.27
2023-01-07T02:34:35.601Z,93.53
2023-01-07T02:35:40.059Z,92.88
2023-01-07T02:36:48.141Z,93.54
2023-01-07T02:38:04.749Z,93.27
2023-01-07T02:39:09.592Z,93.54
2023-01-07T02:40:19.652Z,93.20
2023-01-07T02:41:41.704Z,92.85
2023-01-07T02:42:46.776Z,93.16
2023-01-07T02:43:51.387Z,92.85
2023-01-07T02:45:15.347Z,92.47
2023-01-07T02:46:19.977Z,93.58
2023-01-07T02:47:29.983Z,92.73
2023-01-07T02:48:33.688Z,92.68
2023-01-07T02:49:35.931Z,92.86
2023-01-07T02:50:37.857Z,93.11
2023-01-07T02:51:40.620Z,92.92
2023-01-07T02:52:42.427Z,93.07
2023-01-07T02:53:47.107Z,92.81
2023-01-07T02:55:09.165Z,93.73
2023-01-07T02:56:10.961Z,93.40
2023-01-07T02:57:12.737Z,92.70
2023-01-07T02:58:20.429Z,92.69
2023-01-07T02:59:31.470Z,92.62
2023-01-07T03:00:51.778Z,92.09
2023-01-07T03:02:22.763Z,92.60
2023-01-07T03:03:26.809Z,92.43
2023-01-07T03:04:54.010Z,92.58
2023-01-07T03:06:03.244Z,92.04
2023-01-07T03:07:11.024Z,92.13
2023-01-07T03:08:28.103Z,92.50
2023-01-07T03:09:39.075Z,93.07
2023-01-07T03:10:45.994Z,92.60
2023-01-07T03:11:56.885Z,92.41
2023-01-07T03:13:02.592Z,92.01
2023-01-07T03:14:11.853Z,92.45
2023-01-07T03:15:33.958Z,92.43
2023-01-07T03:16:35.730Z,92.53
2023-01-07T03:17:41.647Z,92.79
2023-01-07T03:18:47.482Z,91.95
2023-01-07T03:19:55.291Z,92.90
2023-01-07T03:21:00.139Z,92.99
2023-01-07T03:22:02.675Z,92.10
2023-01-07T03:23:09.557Z,91.99
2023-01-07T03:24:11.513Z,91.93
2023-01-07T03:25:14.157Z,92.16
2023-01-07T03:26:19.079Z,91.21
2023-01-07T03:27:23.423Z,91.21
2023-01-07T03:28:28.180Z,91.79
2023-01-07T03:29:32.472Z,90.89
2023-01-07T03:30:34.441Z,90.84
2023-01-07T03:31:37.167Z,91.26
2023-01-07T03:32:41.787Z,91.11
2023-01-07T03:33:51.698Z,91.15
2023-01-07T03:34:54.457Z,91.54
2023-01-07T03:35:58.288Z,91.82
2023-01-07T03:37:04.267Z,91.66
2023-01-07T03:38:06.783Z,92.30
2023-01-07T03:39:11.062Z,91.23
2023-01-07T03:40:13.035Z,91.73
2023-01-07T03:41:34.962Z,91.74
2023-01-07T03:42:42.376Z,90.49
2023-01-07T03:43:44.222Z,91.65
2023-01-07T03:44:46.064Z,91.01
2023-01-07T03:45:49.072Z,90.71
2023-01-07T03:46:51.800Z,91.25
2023-01-07T03:47:55.661Z,91.21
2023-01-07T03:48:57.560Z,91.45
2023-01-07T03:49:59.316Z,91.35
2023-01-07T03:51:01.120Z,92.16
2023-01-07T03:52:03.149Z,91.49
2023-01-07T03:53:05.136Z,91.02
2023-01-07T03:54:07.037Z,90.69
2023-01-07T03:55:09.612Z,90.83
2023-01-07T03:56:11.443Z,91.87
2023-01-07T03:57:13.314Z,91.66
2023-01-07T03:58:15.207Z,91.79
2023-01-07T03:59:17.032Z,91.96
2023-01-07T04:00:19.041Z,91.51
2023-01-07T04:01:20.983Z,90.75
2023-01-07T04:02:22.977Z,91.11
2023-01-07T04:03:24.849Z,91.33
2023-01-07T04:04:26.863Z,90.77
2023-01-07T04:05:28.696Z,91.05
2023-01-07T04:06:30.540Z,90.86
2023-01-07T04:07:32.386Z,90.77
2023-01-07T04:08:34.242Z,91.17
2023-01-07T04:09:36.060Z,90.96
2023-01-07T04:10:37.938Z,91.57
2023-01-07T04:11:39.746Z,91.13
2023-01-07T04:12:41.658Z,90.92
2023-01-07T04:13:43.445Z,90.74
2023-01-07T04:14:45.280Z,90.49
2023-01-07T04:15:47.121Z,90.44
2023-01-07T04:16:51.624Z,90.54
2023-01-07T04:17:53.580Z,91.29
2023-01-07T04:18:55.426Z,90.76
2023-01-07T04:19:57.189Z,91.03
2023-01-07T04:20:58.961Z,91.14
2023-01-07T04:22:00.938Z,90.78
2023-01-07T04:23:02.913Z,91.70
2023-01-07T04:24:04.947Z,91.23
2023-01-07T04:25:07.016Z,91.73
2023-01-07T04:26:08.976Z,91.13
2023-01-07T04:27:11.114Z,90.87
2023-01-07T04:28:13.192Z,91.54
2023-01-07T04:29:15.108Z,91.55
2023-01-07T04:30:17.178Z,91.16
2023-01-07T04:31:19.013Z,90.79
2023-01-07T04:32:20.865Z,91.04
2023-01-07T04:33:22.749Z,91.33
2023-01-07T04:34:25.179Z,90.77
2023-01-07T04:35:27.094Z,90.95
2023-01-07T04:36:29.594Z,91.19
2023-01-07T04:37:31.519Z,91.15
2023-01-07T04:38:33.450Z,90.38
2023-01-07T04:39:35.371Z,91.67
2023-01-07T04:40:37.199Z,91.46
2023-01-07T04:41:39.225Z,91.35
2023-01-07T04:42:41.030Z,91.28
2023-01-07T04:43:42.855Z,90.94
2023-01-07T04:44:44.758Z,91.71
2023-01-07T04:45:46.704Z,91.45
2023-01-07T04:46:48.580Z,91.52
2023-01-07T04:47:50.630Z,91.55
2023-01-07T04:48:52.444Z,91.84
2023-01-07T04:49:54.258Z,91.47
2023-01-07T04:50:56.053Z,91.79
2023-01-07T04:51:57.862Z,91.30
2023-01-07T04:52:59.680Z,92.04
2023-01-07T04:54:01.494Z,91.26
2023-01-07T04:55:03.514Z,91.07
2023-01-07T04:56:06.610Z,91.47
2023-01-07T04:57:08.547Z,92.02
2023-01-07T04:58:10.390Z,92.27
2023-01-07T04:59:12.266Z,92.40
2023-01-07T05:00:14.303Z,91.43
2023-01-07T05:01:16.319Z,91.47
2023-01-07T05:02:18.283Z,91.28
2023-01-07T05:03:20.245Z,91.72
2023-01-07T05:04:22.090Z,91.41
2023-01-07T05:05:23.985Z,92.05
2023-01-07T05:06:25.877Z,91.38
2023-01-07T05:07:27.674Z,92.38
2023-01-07T05:08:29.528Z,91.38
2023-01-07T05:09:31.368Z,92.07
2023-01-07T05:10:33.370Z,92.20
2023-01-07T05:11:35.291Z,91.56
2023-01-07T05:12:37.636Z,91.66
2023-01-07T05:13:39.481Z,91.73
2023-01-07T05:14:41.288Z,91.64
2023-01-07T05:15:43.060Z,91.44
2023-01-07T05:16:45.295Z,91.65
2023-01-07T05:17:47.172Z,92.50
2023-01-07T05:18:48.989Z,91.72
2023-01-07T05:19:50.875Z,91.91
2023-01-07T05:20:52.760Z,92.14
2023-01-07T05:21:54.651Z,91.35
2023-01-07T05:22:56.511Z,91.81
2023-01-07T05:23:58.375Z,91.56
2023-01-07T05:25:00.173Z,91.69
2023-01-07T05:26:02.001Z,91.34
2023-01-07T05:27:03.890Z,90.69
2023-01-07T05:28:05.748Z,91.12
2023-01-07T05:29:07.650Z,90.55
2023-01-07T05:30:09.767Z,89.95
2023-01-07T05:31:11.641Z,91.09
2023-01-07T05:32:13.532Z,90.20
2023-01-07T05:33:15.370Z,91.35
2023-01-07T05:34:17.239Z,91.00
2023-01-07T05:35:19.140Z,90.85
2023-01-07T05:36:21.026Z,90.79
2023-01-07T05:37:22.865Z,91.53
2023-01-07T05:38:24.684Z,91.05
2023-01-07T05:39:26.666Z,91.18
2023-01-07T05:40:28.494Z,90.23
2023-01-07T05:41:30.367Z,90.58
2023-01-07T05:42:32.138Z,90.94
2023-01-07T05:43:33.985Z,91.32
2023-01-07T05:44:35.854Z,90.68
2023-01-07T05:45:37.761Z,91.00
2023-01-07T05:46:39.620Z,91.23
2023-01-07T05:47:42.792Z,90.73
2023-01-07T05:48:44.670Z,90.55
2023-01-07T05:49:46.533Z,91.06
2023-01-07T05:50:48.305Z,91.21
2023-01-07T05:51:50.151Z,90.78
2023-01-07T05:52:52.168Z,90.85
2023-01-07T05:53:54.029Z,91.23
2023-01-07T05:54:55.849Z,91.02
2023-01-07T05:55:58.520Z,91.51
2023-01-07T05:57:00.637Z,90.66
2023-01-07T05:58:02.420Z,91.20
2023-01-07T05:59:04.476Z,91.00
2023-01-07T06:00:06.791Z,90.40
2023-01-07T06:01:08.712Z,90.39
2023-01-07T06:02:10.667Z,90.42
2023-01-07T06:03:12.488Z,91.17
2023-01-07T06:04:14.522Z,91.36
2023-01-07T06:05:16.486Z,90.82
2023-01-07T06:06:18.239Z,90.53
2023-01-07T06:07:20.066Z,90.70
2023-01-07T06:08:21.953Z,90.84
2023-01-07T06:09:23.918Z,90.83
2023-01-07T06:10:25.815Z,90.85
2023-01-07T06:11:27.650Z,91.09
2023-01-07T06:12:29.611Z,90.53
2023-01-07T06:13:31.860Z,90.80
2023-01-07T06:14:33.639Z,90.40
2023-01-07T06:15:35.556Z,90.41
2023-01-07T06:16:37.499Z,90.35
2023-01-07T06:17:39.362Z,90.92
2023-01-07T06:18:41.335Z,90.40
2023-01-07T06:19:43.453Z,91.52
2023-01-07T06:20:45.321Z,91.36
2023-01-07T06:21:47.217Z,91.13
2023-01-07T06:22:49.098Z,91.83
2023-01-07T06:23:51.020Z,91.32
2023-01-07T06:24:52.853Z,91.63
2023-01-07T06:25:54.862Z,91.99
2023-01-07T06:26:56.795Z,91.92
2023-01-07T06:27:58.745Z,91.23
2023-01-07T06:29:00.601Z,92.29
2023-01-07T06:30:04.548Z,91.58
2023-01-07T06:31:06.433Z,92.23
2023-01-07T06:32:08.355Z,91.52
2023-01-07T06:33:10.091Z,91.73
2023-01-07T06:34:11.916Z,90.76
2023-01-07T06:35:13.886Z,90.83
2023-01-07T06:36:15.713Z,91.78
2023-01-07T06:37:18.426Z,91.73
2023-01-07T06:38:20.285Z,91.55
2023-01-07T06:39:22.206Z,91.08
2023-01-07T06:40:24.464Z,91.99
2023-01-07T06:41:26.480Z,91.65
2023-01-07T06:42:28.407Z,91.51
2023-01-07T06:43:30.223Z,91.74
2023-01-07T06:44:32.334Z,92.15
2023-01-07T06:45:34.167Z,92.06
2023-01-07T06:46:36.125Z,91.39
2023-01-07T06:47:38.053Z,91.34
2023-01-07T06:48:39.892Z,91.84
2023-01-07T06:49:41.775Z,91.85
2023-01-07T06:50:44.915Z,91.71
2023-01-07T06:51:46.922Z,92.15
2023-01-07T06:52:48.912Z,91.41
2023-01-07T06:53:50.879Z,91.88
2023-01-07T06:54:52.728Z,91.40
2023-01-07T06:55:54.641Z,91.62
2023-01-07T06:56:56.436Z,91.65
2023-01-07T06:57:58.298Z,91.61
2023-01-07T06:59:00.174Z,91.95
2023-01-07T07:00:02.104Z,92.24
2023-01-07T07:01:05.394Z,91.94
2023-01-07T07:02:07.261Z,91.92
2023-01-07T07:03:09.223Z,91.90
2023-01-07T07:04:11.116Z,91.91
2023-01-07T07:05:12.954Z,91.88
2023-01-07T07:06:14.841Z,91.71
2023-01-07T07:07:17.107Z,91.68
2023-01-07T07:08:18.948Z,91.66
2023-01-07T07:09:20.814Z,92.29
2023-01-07T07:10:22.590Z,92.24
2023-01-07T07:11:24.400Z,92.68
2023-01-07T07:12:26.287Z,92.78
2023-01-07T07:13:28.150Z,92.92
2023-01-07T07:14:30.043Z,92.66
2023-01-07T07:15:32.023Z,92.64
2023-01-07T07:16:33.863Z,92.53
2023-01-07T07:17:35.683Z,92.01
2023-01-07T07:18:37.501Z,92.09
2023-01-07T07:19:39.531Z,92.97
2023-01-07T07:20:41.487Z,93.00
2023-01-07T07:21:43.314Z,92.65
2023-01-07T07:22:48.642Z,92.71
2023-01-07T07:23:50.437Z,92.54
2023-01-07T07:24:52.228Z,92.64
2023-01-07T07:25:54.096Z,93.44
2023-01-07T07:26:55.939Z,92.62
2023-01-07T07:27:57.756Z,92.46
2023-01-07T07:28:59.568Z,92.66
2023-01-07T07:30:01.696Z,92.84
2023-01-07T07:31:03.987Z,92.86
2023-01-07T07:32:05.862Z,93.03
2023-01-07T07:33:07.761Z,92.83
2023-01-07T07:34:10.094Z,93.30
2023-01-07T07:35:12.478Z,92.68
2023-01-07T07:36:14.334Z,92.73
2023-01-07T07:37:16.123Z,92.83
2023-01-07T07:38:18.923Z,92.47
2023-01-07T07:39:20.890Z,92.62
2023-01-07T07:40:22.833Z,93.05
2023-01-07T07:41:24.628Z,93.01
2023-01-07T07:42:26.415Z,92.86
2023-01-07T07:43:28.342Z,92.61
2023-01-07T07:44:30.177Z,92.74
2023-01-07T07:45:32.092Z,92.61
2023-01-07T07:46:34.247Z,93.14
2023-01-07T07:47:36.075Z,92.70
2023-01-07T07:48:37.875Z,92.69
2023-01-07T07:49:39.706Z,92.67
2023-01-07T07:50:41.810Z,92.69
2023-01-07T07:51:46.228Z,92.97
2023-01-07T07:52:48.099Z,92.59
2023-01-07T07:53:49.914Z,92.31
2023-01-07T07:54:51.710Z,92.39
2023-01-07T07:55:53.715Z,92.58
2023-01-07T07:56:56.356Z,92.65
2023-01-07T07:58:00.933Z,92.39
2023-01-07T07:59:02.764Z,91.78
2023-01-07T08:00:05.038Z,92.18
2023-01-07T08:01:07.036Z,92.28
2023-01-07T08:02:19.612Z,91.76
2023-01-07T08:03:21.656Z,91.61
2023-01-07T08:04:23.550Z,92.63
2023-01-07T08:05:25.784Z,92.35
2023-01-07T08:06:27.704Z,92.41
2023-01-07T08:07:32.909Z,92.17
2023-01-07T08:08:35.889Z,91.99
2023-01-07T08:09:37.851Z,92.52
2023-01-07T08:10:39.749Z,92.58
2023-01-07T08:11:41.644Z,92.33
2023-01-07T08:12:43.459Z,92.69
2023-01-07T08:13:45.556Z,92.42
2023-01-07T08:14:47.452Z,92.05
2023-01-07T08:15:49.379Z,92.64
2023-01-07T08:16:51.296Z,91.93
2023-01-07T08:18:00.021Z,92.03
2023-01-07T08:19:01.867Z,92.02
2023-01-07T08:20:06.789Z,92.36
2023-01-07T08:21:08.733Z,91.74
2023-01-07T08:22:10.539Z,91.70
2023-01-07T08:23:12.394Z,91.47
2023-01-07T08:24:14.235Z,91.27
2023-01-07T08:25:16.090Z,92.08
2023-01-07T08:26:17.966Z,91.84
2023-01-07T08:27:19.997Z,90.78
2023-01-07T08:28:21.911Z,90.76
2023-01-07T08:29:24.570Z,90.55
2023-01-07T08:30:27.008Z,90.75
2023-01-07T08:31:29.051Z,90.51
2023-01-07T08:32:30.880Z,90.82
2023-01-07T08:33:37.758Z,90.90
2023-01-07T08:34:39.721Z,91.41
2023-01-07T08:35:41.544Z,91.26
2023-01-07T08:36:43.460Z,90.57
2023-01-07T08:37:45.675Z,91.16
2023-01-07T08:38:50.500Z,90.21
2023-01-07T08:39:52.406Z,90.60
2023-01-07T08:40:54.234Z,90.28
2023-01-07T08:41:56.163Z,90.47
2023-01-07T08:42:59.263Z,90.46
2023-01-07T08:44:01.100Z,90.21
2023-01-07T08:45:03.306Z,90.50
2023-01-07T08:46:05.267Z,90.46
2023-01-07T08:47:07.452Z,90.85
2023-01-07T08:48:09.334Z,90.94
2023-01-07T08:49:11.688Z,90.59
2023-01-07T08:50:13.506Z,90.17
2023-01-07T08:51:15.587Z,89.86
2023-01-07T08:52:17.401Z,90.42
2023-01-07T08:53:22.720Z,90.26
2023-01-07T08:54:24.497Z,90.04
2023-01-07T08:55:26.356Z,90.84
2023-01-07T08:56:28.221Z,90.26
2023-01-07T08:57:30.071Z,90.14
2023-01-07T08:58:31.846Z,89.78
2023-01-07T08:59:33.731Z,89.89
2023-01-07T09:00:35.652Z,90.07
2023-01-07T09:01:37.672Z,90.55
2023-01-07T09:02:39.700Z,90.02
2023-01-07T09:03:41.725Z,89.18
2023-01-07T09:04:44.093Z,90.17
2023-01-07T09:05:49.086Z,89.79
2023-01-07T09:06:50.921Z,89.32
2023-01-07T09:07:53.721Z,90.19
2023-01-07T09:08:55.466Z,88.44
2023-01-07T09:09:57.558Z,89.45
2023-01-07T09:10:59.481Z,88.47
2023-01-07T09:12:01.576Z,88.70
2023-01-07T09:13:03.376Z,89.24
2023-01-07T09:14:05.152Z,89.67
2023-01-07T09:15:07.306Z,89.27
2023-01-07T09:16:09.380Z,88.72
2023-01-07T09:17:11.198Z,89.17
2023-01-07T09:18:13.167Z,89.25
2023-01-07T09:19:14.993Z,89.81
2023-01-07T09:20:17.160Z,89.55
2023-01-07T09:21:19.037Z,89.36
2023-01-07T09:22:20.894Z,89.13
2023-01-07T09:23:22.809Z,89.56
2023-01-07T09:24:24.662Z,89.56
2023-01-07T09:25:26.513Z,88.40
2023-01-07T09:26:28.418Z,89.30
2023-01-07T09:27:30.337Z,88.80
2023-01-07T09:28:32.226Z,87.87
2023-01-07T09:29:34.116Z,88.54
2023-01-07T09:30:36.017Z,88.17
2023-01-07T09:31:37.908Z,87.70
2023-01-07T09:32:39.942Z,88.14
2023-01-07T09:33:41.797Z,87.95
2023-01-07T09:34:49.729Z,87.59
2023-01-07T09:35:51.504Z,88.47
2023-01-07T09:36:53.329Z,87.86
2023-01-07T09:37:55.141Z,88.52
2023-01-07T09:38:57.027Z,88.04
2023-01-07T09:40:00.644Z,87.89
2023-01-07T09:41:02.608Z,88.10
2023-01-07T09:42:07.300Z,88.05
2023-01-07T09:43:09.236Z,88.33
2023-01-07T09:44:33.689Z,87.27
2023-01-07T09:45:37.875Z,87.37
2023-01-07T09:46:40.001Z,87.15
2023-01-07T09:47:44.598Z,87.92
2023-01-07T09:48:49.748Z,87.77
2023-01-07T09:49:54.980Z,87.56
2023-01-07T09:51:15.664Z,87.72
2023-01-07T09:52:26.569Z,86.63
2023-01-07T09:53:36.581Z,85.92
2023-01-07T09:54:40.009Z,85.04
2023-01-07T09:56:11.768Z,85.76
2023-01-07T09:57:05.449Z,85.99
2023-01-07T09:58:09.883Z,85.35
2023-01-07T09:59:12.986Z,85.93
2023-01-07T10:00:19.149Z,85.01
2023-01-07T10:01:29.976Z,85.46
2023-01-07T10:02:41.812Z,85.62
2023-01-07T10:03:43.657Z,86.10
2023-01-07T10:04:56.555Z,85.51
2023-01-07T10:06:14.606Z,85.36
2023-01-07T10:07:19.209Z,84.94
2023-01-07T10:08:32.487Z,85.13
2023-01-07T10:09:34.423Z,84.76
2023-01-07T10:10:54.865Z,85.33
2023-01-07T10:12:14.978Z,85.34
2023-01-07T10:13:16.732Z,84.80
2023-01-07T10:14:30.331Z,84.30
2023-01-07T10:15:50.331Z,84.56
2023-01-07T10:17:02.896Z,84.92
2023-01-07T10:18:06.896Z,83.80
2023-01-07T10:19:19.895Z,83.80
2023-01-07T10:20:25.011Z,84.09
2023-01-07T10:21:26.859Z,84.23
2023-01-07T10:22:37.371Z,84.98
2023-01-07T10:23:41.794Z,84.14
2023-01-07T10:24:46.936Z,84.16
2023-01-07T10:25:50.744Z,84.98
2023-01-07T10:26:54.164Z,84.03
2023-01-07T10:27:59.804Z,84.14
2023-01-07T10:29:08.086Z,85.19
2023-01-07T10:30:19.288Z,84.14
2023-01-07T10:31:22.927Z,83.80
2023-01-07T10:32:28.626Z,85.02
2023-01-07T10:33:33.305Z,83.97
2023-01-07T10:34:37.920Z,84.65
2023-01-07T10:35:40.409Z,84.26
2023-01-07T10:37:00.956Z,84.42
2023-01-07T10:38:04.329Z,83.96
2023-01-07T10:39:44.595Z,83.58
2023-01-07T10:40:51.950Z,83.99
2023-01-07T10:42:05.827Z,84.20
2023-01-07T10:43:15.593Z,83.56
2023-01-07T10:44:26.509Z,83.19
2023-01-07T10:45:28.371Z,83.61
2023-01-07T10:46:44.896Z,83.71
2023-01-07T10:47:52.417Z,83.68
2023-01-07T10:48:54.266Z,83.11
2023-01-07T10:49:57.494Z,82.62
2023-01-07T10:51:01.844Z,83.03
2023-01-07T10:52:13.199Z,83.29
2023-01-07T10:53:33.311Z,83.38
2023-01-07T10:54:47.027Z,83.32
2023-01-07T10:56:21.147Z,84.27
2023-01-07T10:57:25.005Z,83.78
2023-01-07T10:58:32.511Z,83.62
2023-01-07T10:59:34.805Z,83.97
2023-01-07T11:00:36.678Z,84.08
2023-01-07T11:01:40.209Z,83.95
2023-01-07T11:02:46.660Z,84.22
2023-01-07T11:03:53.397Z,84.30
2023-01-07T11:04:56.150Z,83.50
2023-01-07T11:06:00.307Z,84.32
2023-01-07T11:07:13.177Z,84.33
2023-01-07T11:08:35.212Z,83.93
2023-01-07T11:09:39.805Z,83.65
2023-01-07T11:10:42.111Z,83.59
2023-01-07T11:11:45.378Z,84.13
2023-01-07T11:12:50.156Z,84.12
2023-01-07T11:13:56.889Z,84.38
2023-01-07T11:15:00.243Z,83.54
2023-01-07T11:16:10.820Z,83.68
2023-01-07T11:17:15.387Z,83.43
2023-01-07T11:18:20.580Z,83.92
2023-01-07T11:19:24.053Z,83.77
2023-01-07T11:20:44.270Z,84.63
2023-01-07T11:21:47.726Z,83.80
2023-01-07T11:22:49.524Z,84.34
2023-01-07T11:23:51.319Z,85.12
2023-01-07T11:24:53.578Z,84.73
2023-01-07T11:25:56.210Z,84.53
2023-01-07T11:27:14.102Z,84.97
2023-01-07T11:28:20.181Z,84.56
2023-01-07T11:29:24.573Z,84.35
2023-01-07T11:30:27.529Z,84.51
2023-01-07T11:31:44.563Z,83.63
2023-01-07T11:32:54.591Z,83.79
2023-01-07T11:34:01.835Z,83.76
2023-01-07T11:35:06.209Z,84.10
2023-01-07T11:36:09.083Z,84.68
2023-01-07T11:37:11.371Z,84.34
2023-01-07T11:38:30.432Z,83.84
2023-01-07T11:39:36.156Z,83.95
2023-01-07T11:40:38.115Z,84.33
2023-01-07T11:41:51.414Z,84.11
2023-01-07T11:42:53.380Z,83.50
2023-01-07T11:43:55.214Z,83.58
2023-01-07T11:45:15.878Z,83.20
2023-01-07T11:46:21.824Z,83.40
2023-01-07T11:47:24.407Z,83.90
2023-01-07T11:48:33.481Z,84.09
2023-01-07T11:49:41.292Z,83.37
2023-01-07T11:50:44.724Z,83.47
2023-01-07T11:51:48.384Z,83.50
2023-01-07T11:52:58.672Z,83.74
2023-01-07T11:54:00.541Z,83.02
2023-01-07T11:55:02.606Z,82.93
2023-01-07T11:56:06.774Z,83.88
2023-01-07T11:57:21.061Z,83.17
2023-01-07T11:58:29.440Z,83.50
2023-01-07T11:59:32.094Z,83.32
2023-01-07T12:00:34.154Z,83.63
2023-01-07T12:01:42.085Z,83.72
2023-01-07T12:02:44.320Z,83.84
2023-01-07T12:03:52.344Z,83.57
2023-01-07T12:05:14.116Z,83.01
2023-01-07T12:06:15.945Z,83.15
2023-01-07T12:07:17.920Z,83.43
2023-01-07T12:08:21.225Z,83.01
2023-01-07T12:09:28.216Z,83.74
2023-01-07T12:10:38.133Z,83.67
2023-01-07T12:11:41.292Z,83.58
2023-01-07T12:12:44.208Z,83.62
2023-01-07T12:13:53.261Z,83.99
2023-01-07T12:14:55.568Z,83.75
2023-01-07T12:15:59.861Z,83.94
2023-01-07T12:17:15.971Z,83.45
2023-01-07T12:18:29.767Z,83.23
2023-01-07T12:19:40.768Z,83.30
2023-01-07T12:21:01.314Z,83.28
2023-01-07T12:22:08.872Z,83.07
2023-01-07T12:23:29.349Z,84.12
2023-01-07T12:24:31.714Z,83.42
2023-01-07T12:25:40.303Z,83.07
2023-01-07T12:26:48.985Z,83.33
2023-01-07T12:28:05.780Z,83.68
2023-01-07T12:29:18.269Z,83.82
2023-01-07T12:30:44.012Z,83.49
2023-01-07T12:31:45.959Z,83.51
2023-01-07T12:33:06.445Z,82.57
2023-01-07T12:34:18.880Z,82.05
2023-01-07T12:35:30.476Z,82.33
2023-01-07T12:36:40.622Z,82.85
2023-01-07T12:37:45.382Z,82.65
2023-01-07T12:38:52.789Z,82.36
2023-01-07T12:39:58.539Z,82.02
2023-01-07T12:41:02.235Z,80.94
2023-01-07T12:42:08.560Z,81.48
2023-01-07T12:43:17.001Z,81.44
2023-01-07T12:44:22.848Z,80.97
2023-01-07T12:45:28.834Z,80.95
2023-01-07T12:46:35.713Z,80.57
2023-01-07T12:47:40.573Z,79.40
2023-01-07T12:48:45.361Z,79.68
2023-01-07T12:50:03.421Z,79.97
2023-01-07T12:51:10.948Z,79.64
2023-01-07T12:52:28.601Z,79.93
2023-01-07T12:53:35.399Z,80.36
2023-01-07T12:54:45.940Z,79.42
2023-01-07T12:56:11.061Z,80.65
2023-01-07T12:57:33.154Z,78.96
2023-01-07T12:58:43.820Z,79.45
2023-01-07T12:59:51.354Z,79.78
2023-01-07T13:01:00.168Z,80.03
2023-01-07T13:02:13.998Z,79.76
2023-01-07T13:03:15.877Z,80.69
2023-01-07T13:04:29.693Z,80.77
2023-01-07T13:05:51.724Z,81.17
2023-01-07T13:06:55.620Z,80.38
2023-01-07T13:08:04.324Z,80.09
2023-01-07T13:09:09.147Z,80.86
2023-01-07T13:10:24.997Z,80.18
2023-01-07T13:11:51.549Z,81.31
2023-01-07T13:12:57.131Z,80.56
2023-01-07T13:13:59.032Z,81.05
2023-01-07T13:15:02.953Z,80.22
2023-01-07T13:16:13.671Z,80.47
2023-01-07T13:17:41.536Z,80.43
2023-01-07T13:18:43.342Z,80.14
2023-01-07T13:19:45.251Z,80.92
2023-01-07T13:20:57.435Z,80.88
2023-01-07T13:21:59.904Z,80.67
2023-01-07T13:23:02.230Z,80.68
2023-01-07T13:24:54.687Z,79.82
2023-01-07T13:26:03.360Z,79.65
2023-01-07T13:27:20.906Z,80.26
2023-01-07T13:28:32.024Z,80.05
2023-01-07T13:29:44.476Z,80.03
2023-01-07T13:30:55.319Z,79.95
2023-01-07T13:32:06.984Z,79.77
2023-01-07T13:33:31.937Z,79.78
2023-01-07T13:34:46.003Z,79.13
2023-01-07T13:36:08.316Z,79.02
2023-01-07T13:37:19.302Z,78.37
2023-01-07T13:38:29.906Z,78.68
2023-01-07T13:39:34.801Z,79.48
2023-01-07T13:40:55.219Z,79.50
2023-01-07T13:42:08.871Z,79.82
2023-01-07T13:43:10.799Z,80.00
2023-01-07T13:44:25.031Z,80.03
2023-01-07T13:45:31.355Z,80.20
2023-01-07T13:46:38.779Z,80.10
2023-01-07T13:47:43.498Z,80.24
2023-01-07T13:48:50.127Z,81.12
2023-01-07T13:49:57.746Z,81.03
2023-01-07T13:51:03.885Z,80.59
2023-01-07T13:52:17.091Z,80.53
2023-01-07T13:53:19.403Z,81.10
2023-01-07T13:54:40.083Z,81.27
2023-01-07T13:55:44.096Z,81.17
2023-01-07T13:56:45.933Z,81.15
2023-01-07T13:57:47.767Z,81.50
2023-01-07T13:58:50.257Z,80.43